createdAt,value
2022-12-24T00:00:29.466Z,33.17
2022-12-24T00:05:33.657Z,32.53
2022-12-24T00:10:46.253Z,33.30
2022-12-24T00:15:55.351Z,32.13
2022-12-24T00:21:01.878Z,32.17
2022-12-24T00:26:13.292Z,33.40
2022-12-24T00:31:18.197Z,33.23
2022-12-24T00:36:20.470Z,32.43
2022-12-24T00:41:25.122Z,32.33
2022-12-24T00:46:36.023Z,34.80
2022-12-24T00:51:37.864Z,34.17
2022-12-24T00:56:41.653Z,31.90
2022-12-24T01:01:46.062Z,34.07
2022-12-24T01:06:47.807Z,33.63
2022-12-24T01:11:51.876Z,33.17
2022-12-24T01:16:58.565Z,32.00
2022-12-24T01:22:05.278Z,34.77
2022-12-24T01:27:07.017Z,33.97
2022-12-24T01:32:08.928Z,31.77
2022-12-24T01:37:10.951Z,32.10
2022-12-24T01:42:38.435Z,33.97
2022-12-24T01:47:40.266Z,32.13
2022-12-24T01:52:46.080Z,33.37
2022-12-24T01:57:56.945Z,30.87
2022-12-24T02:03:04.425Z,31.70
2022-12-24T02:08:07.909Z,31.37
2022-12-24T02:13:22.506Z,32.37
2022-12-24T02:18:55.810Z,28.80
2022-12-24T02:24:09.919Z,31.20
2022-12-24T02:29:20.378Z,30.43
2022-12-24T02:34:40.872Z,31.23
2022-12-24T02:39:51.419Z,30.23
2022-12-24T02:45:06.622Z,29.13
2022-12-24T02:50:15.958Z,29.13
2022-12-24T02:55:22.396Z,27.73
2022-12-24T03:00:25.815Z,28.30
2022-12-24T03:05:49.815Z,28.40
2022-12-24T03:11:02.287Z,26.30
2022-12-24T03:16:06.582Z,27.80
2022-12-24T03:21:31.967Z,30.07
2022-12-24T03:26:38.813Z,31.63
2022-12-24T03:31:52.300Z,29.37
2022-12-24T03:36:59.389Z,31.23
2022-12-24T03:42:04.543Z,29.17
2022-12-24T03:47:10.851Z,30.47
2022-12-24T03:52:14.858Z,27.20
2022-12-24T03:57:16.734Z,30.97
2022-12-24T04:02:18.959Z,29.30
2022-12-24T04:07:25.466Z,31.87
2022-12-24T04:12:32.033Z,31.43
2022-12-24T04:17:33.789Z,31.53
2022-12-24T04:22:35.577Z,28.97
2022-12-24T04:27:39.605Z,30.13
2022-12-24T04:32:43.559Z,29.23
2022-12-24T04:37:45.224Z,30.50
2022-12-24T04:42:50.597Z,29.07
2022-12-24T04:47:52.356Z,29.67
2022-12-24T04:52:54.145Z,29.50
2022-12-24T04:57:55.837Z,28.00
2022-12-24T05:03:00.230Z,27.77
2022-12-24T05:08:04.613Z,28.73
2022-12-24T05:13:08.792Z,28.30
2022-12-24T05:18:13.460Z,28.93
2022-12-24T05:23:42.091Z,29.23
2022-12-24T05:28:43.760Z,29.53
2022-12-24T05:33:47.883Z,28.13
2022-12-24T05:38:49.818Z,31.57
2022-12-24T05:43:54.060Z,28.40
2022-12-24T05:48:55.837Z,31.03
2022-12-24T05:53:58.566Z,28.87
2022-12-24T05:59:02.777Z,28.90
2022-12-24T06:04:09.253Z,30.23
2022-12-24T06:09:11.107Z,27.20
2022-12-24T06:14:14.960Z,27.10
2022-12-24T06:19:16.748Z,28.00
2022-12-24T06:24:21.464Z,28.67
2022-12-24T06:29:27.305Z,27.20
2022-12-24T06:34:29.316Z,29.70
2022-12-24T06:39:31.054Z,26.83
2022-12-24T06:44:35.287Z,25.10
2022-12-24T06:49:39.236Z,24.90
2022-12-24T06:54:40.948Z,21.43
2022-12-24T06:59:42.613Z,22.20
2022-12-24T07:04:47.021Z,21.40
2022-12-24T07:09:51.051Z,21.50
2022-12-24T07:14:55.039Z,20.53
2022-12-24T07:19:59.297Z,20.37
2022-12-24T07:25:06.162Z,21.83
2022-12-24T07:30:08.669Z,20.43
2022-12-24T07:35:10.373Z,21.23
2022-12-24T07:40:17.348Z,21.97
2022-12-24T07:45:20.075Z,19.00
2022-12-24T07:50:21.759Z,19.30
2022-12-24T07:55:26.880Z,16.73
2022-12-24T08:00:28.715Z,17.63
2022-12-24T08:05:35.129Z,20.00
2022-12-24T08:10:39.764Z,19.13
2022-12-24T08:15:42.815Z,20.67
2022-12-24T08:20:48.069Z,18.77
2022-12-24T08:25:50.160Z,20.23
2022-12-24T08:30:54.240Z,20.73
2022-12-24T08:35:58.580Z,21.67
2022-12-24T08:41:00.274Z,21.93
2022-12-24T08:46:05.834Z,21.30
2022-12-24T08:51:12.161Z,25.63
2022-12-24T08:56:16.460Z,23.10
2022-12-24T09:01:21.395Z,21.27
2022-12-24T09:06:25.683Z,19.17
2022-12-24T09:11:29.699Z,16.97
2022-12-24T09:16:36.810Z,14.80
2022-12-24T09:21:41.553Z,15.43
2022-12-24T09:26:43.402Z,15.00
2022-12-24T09:31:47.868Z,15.80
2022-12-24T09:36:54.418Z,11.63
2022-12-24T09:42:16.281Z,10.83
2022-12-24T09:47:29.129Z,9.97
2022-12-24T09:52:39.314Z,8.93
2022-12-24T09:57:47.064Z,10.80
2022-12-24T10:02:48.870Z,9.70
2022-12-24T10:07:53.414Z,9.97
2022-12-24T10:13:56.237Z,9.03
2022-12-24T10:19:24.291Z,9.23
2022-12-24T10:24:34.798Z,10.10
2022-12-24T10:29:42.945Z,9.23
2022-12-24T10:34:48.328Z,8.87
2022-12-24T10:39:57.564Z,9.47
2022-12-24T10:45:04.150Z,10.20
2022-12-24T10:50:27.586Z,9.50
2022-12-24T10:55:29.928Z,7.47
2022-12-24T11:00:37.475Z,9.17
2022-12-24T11:05:45.216Z,8.73
2022-12-24T11:11:06.123Z,9.90
2022-12-24T11:16:31.119Z,8.83
2022-12-24T11:21:35.371Z,9.03
2022-12-24T11:26:38.135Z,9.00
2022-12-24T11:31:46.152Z,7.60
2022-12-24T11:36:47.949Z,9.13
2022-12-24T11:41:53.261Z,9.13
2022-12-24T11:46:59.053Z,7.70
2022-12-24T11:52:12.621Z,8.23
2022-12-24T11:57:16.470Z,8.67
2022-12-24T12:02:34.483Z,9.07
2022-12-24T12:07:38.254Z,9.57
2022-12-24T12:12:45.710Z,9.90
2022-12-24T12:18:13.948Z,9.93
2022-12-24T12:23:35.886Z,8.30
2022-12-24T12:28:45.610Z,8.97
2022-12-24T12:33:52.463Z,8.67
2022-12-24T12:38:54.221Z,8.93
2022-12-24T12:44:19.945Z,7.70
2022-12-24T12:49:23.877Z,8.70
2022-12-24T12:54:40.217Z,9.60
2022-12-24T12:59:56.921Z,9.10
2022-12-24T13:05:27.804Z,8.47
2022-12-24T13:11:09.394Z,9.17
2022-12-24T13:16:34.002Z,10.17
2022-12-24T13:21:36.916Z,8.97
2022-12-24T13:26:38.644Z,9.30
2022-12-24T13:31:40.397Z,9.90
2022-12-24T13:37:04.108Z,10.00
2022-12-24T13:42:08.321Z,10.87
2022-12-24T13:47:13.293Z,10.20
2022-12-24T13:52:14.921Z,9.13
2022-12-24T13:57:34.313Z,9.30
2022-12-24T14:02:43.295Z,7.17
2022-12-24T14:07:47.733Z,7.30
2022-12-24T14:12:55.257Z,8.50
2022-12-24T14:17:57.076Z,6.63
2022-12-24T14:23:01.587Z,7.23
2022-12-24T14:28:19.140Z,5.70
2022-12-24T14:33:34.483Z,6.20
2022-12-24T14:38:38.695Z,5.50
2022-12-24T14:43:46.068Z,7.57
2022-12-24T14:48:54.710Z,5.63
2022-12-24T14:54:27.083Z,5.77
2022-12-24T14:59:30.874Z,6.60
2022-12-24T15:04:33.383Z,5.13
2022-12-24T15:09:37.452Z,5.57
2022-12-24T15:14:45.084Z,5.23
2022-12-24T15:19:52.527Z,5.47
2022-12-24T15:25:00.189Z,4.80
2022-12-24T15:30:12.278Z,5.70
2022-12-24T15:35:35.979Z,5.10
2022-12-24T15:40:37.755Z,5.13
2022-12-24T15:45:53.547Z,5.30
2022-12-24T15:51:01.630Z,5.67
2022-12-24T15:56:36.705Z,4.70
2022-12-24T16:01:38.528Z,6.20
2022-12-24T16:07:01.935Z,5.30
2022-12-24T16:12:04.973Z,7.00
2022-12-24T16:17:23.814Z,6.87
2022-12-24T16:22:31.584Z,6.87
2022-12-24T16:27:38.378Z,6.10
2022-12-24T16:32:42.003Z,6.43
2022-12-24T16:37:43.711Z,5.63
2022-12-24T16:43:08.005Z,6.40
2022-12-24T16:48:19.196Z,5.37
2022-12-24T16:53:22.116Z,7.00
2022-12-24T16:58:24.005Z,5.43
2022-12-24T17:03:28.259Z,6.00
2022-12-24T17:08:29.992Z,6.73
2022-12-24T17:13:32.118Z,6.97
2022-12-24T17:18:35.454Z,6.23
2022-12-24T17:23:43.191Z,7.17
2022-12-24T17:28:47.075Z,6.83
2022-12-24T17:33:50.323Z,6.77
2022-12-24T17:38:55.004Z,7.27
2022-12-24T17:43:56.786Z,7.87
2022-12-24T17:48:58.511Z,6.70
2022-12-24T17:54:00.791Z,6.30
2022-12-24T17:59:03.872Z,6.43
2022-12-24T18:04:06.330Z,7.20
2022-12-24T18:09:08.369Z,5.83
2022-12-24T18:14:15.374Z,7.50
2022-12-24T18:19:22.677Z,7.70
2022-12-24T18:24:27.629Z,6.27
2022-12-24T18:29:29.340Z,6.63
2022-12-24T18:34:31.056Z,6.43
2022-12-24T18:39:32.755Z,6.50
2022-12-24T18:44:36.134Z,7.23
2022-12-24T18:49:38.656Z,6.27
2022-12-24T18:54:40.901Z,6.87
2022-12-24T18:59:42.597Z,6.47
2022-12-24T19:04:44.238Z,7.40
2022-12-24T19:09:48.446Z,6.80
2022-12-24T19:14:52.496Z,7.20
2022-12-24T19:19:56.310Z,8.27
2022-12-24T19:25:00.285Z,7.67
2022-12-24T19:30:02.667Z,9.83
2022-12-24T19:35:05.014Z,12.53
2022-12-24T19:40:10.722Z,12.33
2022-12-24T19:45:18.553Z,10.70
2022-12-24T19:50:23.324Z,18.47
2022-12-24T19:55:30.352Z,18.93
2022-12-24T20:00:35.218Z,12.77
2022-12-24T20:05:40.896Z,12.27
2022-12-24T20:10:45.632Z,11.93
2022-12-24T20:15:50.003Z,12.47
2022-12-24T20:20:54.865Z,11.23
2022-12-24T20:26:00.677Z,9.27
2022-12-24T20:31:19.602Z,8.90
2022-12-24T20:36:22.734Z,9.97
2022-12-24T20:41:30.645Z,10.53
2022-12-24T20:46:35.631Z,10.60
2022-12-24T20:51:40.202Z,11.87
2022-12-24T20:56:42.334Z,10.13
2022-12-24T21:01:48.878Z,10.70
2022-12-24T21:06:52.995Z,9.97
2022-12-24T21:11:54.669Z,11.53
2022-12-24T21:17:01.309Z,11.33
2022-12-24T21:22:08.356Z,11.73
2022-12-24T21:27:10.351Z,11.77
2022-12-24T21:32:13.883Z,12.23
2022-12-24T21:37:16.221Z,11.20
2022-12-24T21:42:20.397Z,13.57
2022-12-24T21:47:24.865Z,13.93
2022-12-24T21:52:26.627Z,17.63
2022-12-24T21:57:49.118Z,14.37
2022-12-24T22:02:55.118Z,13.27
2022-12-24T22:08:15.663Z,14.60
2022-12-24T22:13:18.796Z,15.97
2022-12-24T22:18:24.890Z,16.67
2022-12-24T22:23:28.955Z,17.70
2022-12-24T22:28:33.278Z,17.70
2022-12-24T22:33:36.667Z,17.03
2022-12-24T22:38:38.721Z,17.93
2022-12-24T22:43:42.111Z,19.33
2022-12-24T22:48:46.361Z,20.13
2022-12-24T22:53:48.595Z,21.80
2022-12-24T22:58:57.208Z,21.30
2022-12-24T23:04:01.460Z,20.70
2022-12-24T23:09:08.387Z,20.30
2022-12-24T23:14:49.344Z,23.33
2022-12-24T23:19:53.162Z,22.23
2022-12-24T23:24:54.864Z,21.27
2022-12-24T23:29:56.632Z,20.97
2022-12-24T23:34:58.330Z,22.47
2022-12-24T23:40:00.206Z,23.30
2022-12-24T23:45:04.973Z,24.67
2022-12-24T23:50:11.638Z,22.03
2022-12-24T23:55:13.363Z,26.30
